<?xml version="1.0" encoding="UTF-8" standalone="no" ?>
<gpx xmlns="http://www.topografix.com/GPX/1/1" xmlns:xsi="http://www.w3.org/2001/XMLSchema-instance" xsi:schemaLocation="http://www.topografix.com/GPX/1/1 http://www.topografix.com/GPX/1/1/gpx.xsd" version="1.1" creator="VisuGPX - https://www.visugpx.com">
  <metadata>
    <name>Maisonneuve - La garrigue au Nord du Chassezac</name>
    <desc><![CDATA[Une boucle qui offre de magnifiques vues sur le Chassezac et ses falaises et qui se poursuit dans les chaos de cette belle garrigue autour de Coudon.]]></desc>
  </metadata>
  <trk>
    <name><![CDATA[Entre chaos et garrigue au Nord du Chassezac]]></name>
    <extensions>
      <line xmlns="http://www.topografix.com/GPX/gpx_style/0/2">
        <color>0000FF</color>
        <width>4</width>
      </line>
    </extensions>
    <trkseg>
      <trkpt lat="44.39833" lon="4.22892">
        <ele>151</ele>
        <time>2020-03-12T11:42:57+01:00</time>
      </trkpt>
      <trkpt lat="44.39833" lon="4.22909">
        <ele>150</ele>
        <time>2020-03-12T11:43:02+01:00</time>
      </trkpt>
      <trkpt lat="44.39859" lon="4.22904">
        <ele>152</ele>
        <time>2020-03-12T11:43:07+01:00</time>
      </trkpt>
      <trkpt lat="44.39871" lon="4.22901">
        <ele>152</ele>
        <time>2020-03-12T11:43:12+01:00</time>
      </trkpt>
      <trkpt lat="44.3989" lon="4.22904">
        <ele>153</ele>
        <time>2020-03-12T11:43:17+01:00</time>
      </trkpt>
      <trkpt lat="44.39905" lon="4.22909">
        <ele>154</ele>
        <time>2020-03-12T11:43:22+01:00</time>
      </trkpt>
      <trkpt lat="44.39924" lon="4.22901">
        <ele>155</ele>
        <time>2020-03-12T11:43:27+01:00</time>
      </trkpt>
      <trkpt lat="44.39975" lon="4.22865">
        <ele>159</ele>
        <time>2020-03-12T11:43:32+01:00</time>
      </trkpt>
      <trkpt lat="44.40013" lon="4.22835">
        <ele>161</ele>
        <time>2020-03-12T11:43:37+01:00</time>
      </trkpt>
      <trkpt lat="44.40023" lon="4.22829">
        <ele>161</ele>
        <time>2020-03-12T11:43:42+01:00</time>
      </trkpt>
      <trkpt lat="44.40045" lon="4.2281">
        <ele>160</ele>
        <time>2020-03-12T11:43:47+01:00</time>
      </trkpt>
      <trkpt lat="44.40054" lon="4.22801">
        <ele>160</ele>
        <time>2020-03-12T11:43:52+01:00</time>
      </trkpt>
      <trkpt lat="44.40059" lon="4.22789">
        <ele>159</ele>
        <time>2020-03-12T11:43:57+01:00</time>
      </trkpt>
      <trkpt lat="44.40068" lon="4.22779">
        <ele>159</ele>
        <time>2020-03-12T11:44:02+01:00</time>
      </trkpt>
      <trkpt lat="44.4008" lon="4.22762">
        <ele>158</ele>
        <time>2020-03-12T11:44:07+01:00</time>
      </trkpt>
      <trkpt lat="44.40088" lon="4.22742">
        <ele>156</ele>
        <time>2020-03-12T11:44:12+01:00</time>
      </trkpt>
      <trkpt lat="44.40094" lon="4.22731">
        <ele>153</ele>
        <time>2020-03-12T11:44:17+01:00</time>
      </trkpt>
      <trkpt lat="44.40107" lon="4.2272">
        <ele>151</ele>
        <time>2020-03-12T11:44:22+01:00</time>
      </trkpt>
      <trkpt lat="44.40113" lon="4.22715">
        <ele>150</ele>
        <time>2020-03-12T11:44:27+01:00</time>
      </trkpt>
      <trkpt lat="44.40115" lon="4.22691">
        <ele>144</ele>
        <time>2020-03-12T11:44:32+01:00</time>
      </trkpt>
      <trkpt lat="44.40116" lon="4.22683">
        <ele>142</ele>
        <time>2020-03-12T11:44:37+01:00</time>
      </trkpt>
      <trkpt lat="44.40125" lon="4.2267">
        <ele>140</ele>
        <time>2020-03-12T11:44:42+01:00</time>
      </trkpt>
      <trkpt lat="44.40137" lon="4.22662">
        <ele>140</ele>
        <time>2020-03-12T11:44:47+01:00</time>
      </trkpt>
      <trkpt lat="44.40153" lon="4.22658">
        <ele>141</ele>
        <time>2020-03-12T11:44:52+01:00</time>
      </trkpt>
      <trkpt lat="44.40168" lon="4.22664">
        <ele>145</ele>
        <time>2020-03-12T11:44:57+01:00</time>
      </trkpt>
      <trkpt lat="44.40181" lon="4.22673">
        <ele>149</ele>
        <time>2020-03-12T11:45:02+01:00</time>
      </trkpt>
      <trkpt lat="44.40199" lon="4.22668">
        <ele>151</ele>
        <time>2020-03-12T11:45:07+01:00</time>
      </trkpt>
      <trkpt lat="44.40215" lon="4.22663">
        <ele>152</ele>
        <time>2020-03-12T11:45:12+01:00</time>
      </trkpt>
      <trkpt lat="44.40233" lon="4.22645">
        <ele>149</ele>
        <time>2020-03-12T11:45:17+01:00</time>
      </trkpt>
      <trkpt lat="44.40251" lon="4.22623">
        <ele>145</ele>
        <time>2020-03-12T11:45:22+01:00</time>
      </trkpt>
      <trkpt lat="44.4026" lon="4.22605">
        <ele>141</ele>
        <time>2020-03-12T11:45:27+01:00</time>
      </trkpt>
      <trkpt lat="44.40247" lon="4.22574">
        <ele>129</ele>
        <time>2020-03-12T11:45:32+01:00</time>
      </trkpt>
      <trkpt lat="44.40235" lon="4.22547">
        <ele>124</ele>
        <time>2020-03-12T11:45:37+01:00</time>
      </trkpt>
      <trkpt lat="44.40256" lon="4.22498">
        <ele>119</ele>
        <time>2020-03-12T11:45:42+01:00</time>
      </trkpt>
      <trkpt lat="44.40278" lon="4.22456">
        <ele>120</ele>
        <time>2020-03-12T11:45:47+01:00</time>
      </trkpt>
      <trkpt lat="44.40294" lon="4.22429">
        <ele>119</ele>
        <time>2020-03-12T11:45:52+01:00</time>
      </trkpt>
      <trkpt lat="44.4031" lon="4.22391">
        <ele>119</ele>
        <time>2020-03-12T11:45:57+01:00</time>
      </trkpt>
      <trkpt lat="44.40314" lon="4.22359">
        <ele>118</ele>
        <time>2020-03-12T11:46:02+01:00</time>
      </trkpt>
      <trkpt lat="44.40322" lon="4.22323">
        <ele>117</ele>
        <time>2020-03-12T11:46:07+01:00</time>
      </trkpt>
      <trkpt lat="44.4033" lon="4.22299">
        <ele>117</ele>
        <time>2020-03-12T11:46:12+01:00</time>
      </trkpt>
      <trkpt lat="44.40329" lon="4.22288">
        <ele>117</ele>
        <time>2020-03-12T11:46:17+01:00</time>
      </trkpt>
      <trkpt lat="44.40348" lon="4.22244">
        <ele>118</ele>
        <time>2020-03-12T11:46:22+01:00</time>
      </trkpt>
      <trkpt lat="44.40362" lon="4.22217">
        <ele>118</ele>
        <time>2020-03-12T11:46:27+01:00</time>
      </trkpt>
      <trkpt lat="44.40383" lon="4.22188">
        <ele>118</ele>
        <time>2020-03-12T11:46:32+01:00</time>
      </trkpt>
      <trkpt lat="44.40391" lon="4.2217">
        <ele>118</ele>
        <time>2020-03-12T11:46:37+01:00</time>
      </trkpt>
      <trkpt lat="44.40397" lon="4.22153">
        <ele>117</ele>
        <time>2020-03-12T11:46:42+01:00</time>
      </trkpt>
      <trkpt lat="44.40413" lon="4.22119">
        <ele>117</ele>
        <time>2020-03-12T11:46:47+01:00</time>
      </trkpt>
      <trkpt lat="44.40432" lon="4.22086">
        <ele>117</ele>
        <time>2020-03-12T11:46:52+01:00</time>
      </trkpt>
      <trkpt lat="44.40443" lon="4.22064">
        <ele>118</ele>
        <time>2020-03-12T11:46:57+01:00</time>
      </trkpt>
      <trkpt lat="44.40447" lon="4.22049">
        <ele>118</ele>
        <time>2020-03-12T11:47:02+01:00</time>
      </trkpt>
      <trkpt lat="44.40456" lon="4.22038">
        <ele>119</ele>
        <time>2020-03-12T11:47:07+01:00</time>
      </trkpt>
      <trkpt lat="44.40467" lon="4.22033">
        <ele>119</ele>
        <time>2020-03-12T11:47:12+01:00</time>
      </trkpt>
      <trkpt lat="44.40483" lon="4.22038">
        <ele>120</ele>
        <time>2020-03-12T11:47:17+01:00</time>
      </trkpt>
      <trkpt lat="44.40504" lon="4.22004">
        <ele>121</ele>
        <time>2020-03-12T11:47:22+01:00</time>
      </trkpt>
      <trkpt lat="44.40516" lon="4.21988">
        <ele>123</ele>
        <time>2020-03-12T11:47:27+01:00</time>
      </trkpt>
      <trkpt lat="44.40524" lon="4.21982">
        <ele>124</ele>
        <time>2020-03-12T11:47:32+01:00</time>
      </trkpt>
      <trkpt lat="44.40552" lon="4.22005">
        <ele>130</ele>
        <time>2020-03-12T11:47:37+01:00</time>
      </trkpt>
      <trkpt lat="44.40562" lon="4.22003">
        <ele>132</ele>
        <time>2020-03-12T11:47:42+01:00</time>
      </trkpt>
      <trkpt lat="44.40574" lon="4.21989">
        <ele>134</ele>
        <time>2020-03-12T11:47:47+01:00</time>
      </trkpt>
      <trkpt lat="44.4058" lon="4.2196">
        <ele>134</ele>
        <time>2020-03-12T11:47:52+01:00</time>
      </trkpt>
      <trkpt lat="44.40588" lon="4.21928">
        <ele>135</ele>
        <time>2020-03-12T11:47:57+01:00</time>
      </trkpt>
      <trkpt lat="44.40605" lon="4.21872">
        <ele>137</ele>
        <time>2020-03-12T11:48:02+01:00</time>
      </trkpt>
      <trkpt lat="44.40621" lon="4.21813">
        <ele>137</ele>
        <time>2020-03-12T11:48:07+01:00</time>
      </trkpt>
      <trkpt lat="44.40631" lon="4.21781">
        <ele>139</ele>
        <time>2020-03-12T11:48:12+01:00</time>
      </trkpt>
      <trkpt lat="44.40639" lon="4.21758">
        <ele>140</ele>
        <time>2020-03-12T11:48:17+01:00</time>
      </trkpt>
      <trkpt lat="44.40642" lon="4.21739">
        <ele>140</ele>
        <time>2020-03-12T11:48:22+01:00</time>
      </trkpt>
      <trkpt lat="44.40653" lon="4.21684">
        <ele>138</ele>
        <time>2020-03-12T11:48:27+01:00</time>
      </trkpt>
      <trkpt lat="44.40662" lon="4.2164">
        <ele>134</ele>
        <time>2020-03-12T11:48:32+01:00</time>
      </trkpt>
      <trkpt lat="44.40667" lon="4.21617">
        <ele>131</ele>
        <time>2020-03-12T11:48:37+01:00</time>
      </trkpt>
      <trkpt lat="44.40673" lon="4.21609">
        <ele>131</ele>
        <time>2020-03-12T11:48:42+01:00</time>
      </trkpt>
      <trkpt lat="44.40693" lon="4.21615">
        <ele>136</ele>
        <time>2020-03-12T11:48:47+01:00</time>
      </trkpt>
      <trkpt lat="44.40712" lon="4.2162">
        <ele>141</ele>
        <time>2020-03-12T11:48:52+01:00</time>
      </trkpt>
      <trkpt lat="44.40722" lon="4.21622">
        <ele>144</ele>
        <time>2020-03-12T11:48:57+01:00</time>
      </trkpt>
      <trkpt lat="44.40729" lon="4.21616">
        <ele>144</ele>
        <time>2020-03-12T11:49:02+01:00</time>
      </trkpt>
      <trkpt lat="44.40726" lon="4.21591">
        <ele>141</ele>
        <time>2020-03-12T11:49:07+01:00</time>
      </trkpt>
      <trkpt lat="44.40722" lon="4.21575">
        <ele>139</ele>
        <time>2020-03-12T11:49:12+01:00</time>
      </trkpt>
      <trkpt lat="44.40709" lon="4.21553">
        <ele>137</ele>
        <time>2020-03-12T11:49:17+01:00</time>
      </trkpt>
      <trkpt lat="44.40708" lon="4.21546">
        <ele>137</ele>
        <time>2020-03-12T11:49:22+01:00</time>
      </trkpt>
      <trkpt lat="44.40719" lon="4.2151">
        <ele>143</ele>
        <time>2020-03-12T11:49:27+01:00</time>
      </trkpt>
      <trkpt lat="44.40726" lon="4.21485">
        <ele>146</ele>
        <time>2020-03-12T11:49:32+01:00</time>
      </trkpt>
      <trkpt lat="44.40729" lon="4.21464">
        <ele>147</ele>
        <time>2020-03-12T11:49:37+01:00</time>
      </trkpt>
      <trkpt lat="44.40736" lon="4.21447">
        <ele>150</ele>
        <time>2020-03-12T11:49:42+01:00</time>
      </trkpt>
      <trkpt lat="44.40742" lon="4.21437">
        <ele>152</ele>
        <time>2020-03-12T11:49:47+01:00</time>
      </trkpt>
      <trkpt lat="44.40741" lon="4.21409">
        <ele>150</ele>
        <time>2020-03-12T11:49:52+01:00</time>
      </trkpt>
      <trkpt lat="44.40744" lon="4.2139">
        <ele>148</ele>
        <time>2020-03-12T11:49:57+01:00</time>
      </trkpt>
      <trkpt lat="44.40754" lon="4.2137">
        <ele>147</ele>
        <time>2020-03-12T11:50:02+01:00</time>
      </trkpt>
      <trkpt lat="44.40765" lon="4.21361">
        <ele>148</ele>
        <time>2020-03-12T11:50:07+01:00</time>
      </trkpt>
      <trkpt lat="44.40782" lon="4.21348">
        <ele>151</ele>
        <time>2020-03-12T11:50:12+01:00</time>
      </trkpt>
      <trkpt lat="44.40794" lon="4.21332">
        <ele>152</ele>
        <time>2020-03-12T11:50:17+01:00</time>
      </trkpt>
      <trkpt lat="44.40784" lon="4.21296">
        <ele>148</ele>
        <time>2020-03-12T11:50:22+01:00</time>
      </trkpt>
      <trkpt lat="44.40778" lon="4.21277">
        <ele>145</ele>
        <time>2020-03-12T11:50:27+01:00</time>
      </trkpt>
      <trkpt lat="44.40766" lon="4.21251">
        <ele>140</ele>
        <time>2020-03-12T11:50:32+01:00</time>
      </trkpt>
      <trkpt lat="44.40777" lon="4.21229">
        <ele>144</ele>
        <time>2020-03-12T11:50:37+01:00</time>
      </trkpt>
      <trkpt lat="44.4079" lon="4.21211">
        <ele>150</ele>
        <time>2020-03-12T11:50:42+01:00</time>
      </trkpt>
      <trkpt lat="44.408" lon="4.21205">
        <ele>154</ele>
        <time>2020-03-12T11:50:47+01:00</time>
      </trkpt>
      <trkpt lat="44.40808" lon="4.2117">
        <ele>158</ele>
        <time>2020-03-12T11:50:52+01:00</time>
      </trkpt>
      <trkpt lat="44.40813" lon="4.21136">
        <ele>159</ele>
        <time>2020-03-12T11:50:57+01:00</time>
      </trkpt>
      <trkpt lat="44.40813" lon="4.21114">
        <ele>158</ele>
        <time>2020-03-12T11:51:02+01:00</time>
      </trkpt>
      <trkpt lat="44.40828" lon="4.21061">
        <ele>163</ele>
        <time>2020-03-12T11:51:07+01:00</time>
      </trkpt>
      <trkpt lat="44.40845" lon="4.21004">
        <ele>170</ele>
        <time>2020-03-12T11:51:12+01:00</time>
      </trkpt>
      <trkpt lat="44.4085" lon="4.20971">
        <ele>174</ele>
        <time>2020-03-12T11:51:17+01:00</time>
      </trkpt>
      <trkpt lat="44.40854" lon="4.20946">
        <ele>176</ele>
        <time>2020-03-12T11:51:22+01:00</time>
      </trkpt>
      <trkpt lat="44.40847" lon="4.2091">
        <ele>175</ele>
        <time>2020-03-12T11:51:27+01:00</time>
      </trkpt>
      <trkpt lat="44.40846" lon="4.20896">
        <ele>175</ele>
        <time>2020-03-12T11:51:32+01:00</time>
      </trkpt>
      <trkpt lat="44.40858" lon="4.20871">
        <ele>181</ele>
        <time>2020-03-12T11:51:37+01:00</time>
      </trkpt>
      <trkpt lat="44.40873" lon="4.20839">
        <ele>188</ele>
        <time>2020-03-12T11:51:42+01:00</time>
      </trkpt>
      <trkpt lat="44.40878" lon="4.20813">
        <ele>191</ele>
        <time>2020-03-12T11:51:47+01:00</time>
      </trkpt>
      <trkpt lat="44.40872" lon="4.20781">
        <ele>191</ele>
        <time>2020-03-12T11:51:52+01:00</time>
      </trkpt>
      <trkpt lat="44.40864" lon="4.20758">
        <ele>190</ele>
        <time>2020-03-12T11:51:57+01:00</time>
      </trkpt>
      <trkpt lat="44.40864" lon="4.20732">
        <ele>190</ele>
        <time>2020-03-12T11:52:02+01:00</time>
      </trkpt>
      <trkpt lat="44.40867" lon="4.20649">
        <ele>191</ele>
        <time>2020-03-12T11:52:07+01:00</time>
      </trkpt>
      <trkpt lat="44.4087" lon="4.20601">
        <ele>191</ele>
        <time>2020-03-12T11:52:12+01:00</time>
      </trkpt>
      <trkpt lat="44.4087" lon="4.2057">
        <ele>190</ele>
        <time>2020-03-12T11:52:17+01:00</time>
      </trkpt>
      <trkpt lat="44.40873" lon="4.20549">
        <ele>189</ele>
        <time>2020-03-12T11:52:22+01:00</time>
      </trkpt>
      <trkpt lat="44.40867" lon="4.20529">
        <ele>184</ele>
        <time>2020-03-12T11:52:27+01:00</time>
      </trkpt>
      <trkpt lat="44.40864" lon="4.20514">
        <ele>181</ele>
        <time>2020-03-12T11:52:32+01:00</time>
      </trkpt>
      <trkpt lat="44.40867" lon="4.20499">
        <ele>181</ele>
        <time>2020-03-12T11:52:37+01:00</time>
      </trkpt>
      <trkpt lat="44.40872" lon="4.2048">
        <ele>180</ele>
        <time>2020-03-12T11:52:42+01:00</time>
      </trkpt>
      <trkpt lat="44.4088" lon="4.20471">
        <ele>183</ele>
        <time>2020-03-12T11:52:47+01:00</time>
      </trkpt>
      <trkpt lat="44.40888" lon="4.20471">
        <ele>186</ele>
        <time>2020-03-12T11:52:52+01:00</time>
      </trkpt>
      <trkpt lat="44.40894" lon="4.20467">
        <ele>189</ele>
        <time>2020-03-12T11:52:57+01:00</time>
      </trkpt>
      <trkpt lat="44.40884" lon="4.20446">
        <ele>182</ele>
        <time>2020-03-12T11:53:02+01:00</time>
      </trkpt>
      <trkpt lat="44.40877" lon="4.20433">
        <ele>176</ele>
        <time>2020-03-12T11:53:07+01:00</time>
      </trkpt>
      <trkpt lat="44.40875" lon="4.20426">
        <ele>175</ele>
        <time>2020-03-12T11:53:12+01:00</time>
      </trkpt>
      <trkpt lat="44.40875" lon="4.20405">
        <ele>173</ele>
        <time>2020-03-12T11:53:17+01:00</time>
      </trkpt>
      <trkpt lat="44.40871" lon="4.20383">
        <ele>169</ele>
        <time>2020-03-12T11:53:22+01:00</time>
      </trkpt>
      <trkpt lat="44.40861" lon="4.20374">
        <ele>164</ele>
        <time>2020-03-12T11:53:27+01:00</time>
      </trkpt>
      <trkpt lat="44.4085" lon="4.20364">
        <ele>158</ele>
        <time>2020-03-12T11:53:32+01:00</time>
      </trkpt>
      <trkpt lat="44.40848" lon="4.20333">
        <ele>155</ele>
        <time>2020-03-12T11:53:37+01:00</time>
      </trkpt>
      <trkpt lat="44.40851" lon="4.20292">
        <ele>158</ele>
        <time>2020-03-12T11:53:42+01:00</time>
      </trkpt>
      <trkpt lat="44.40854" lon="4.20277">
        <ele>160</ele>
        <time>2020-03-12T11:53:47+01:00</time>
      </trkpt>
      <trkpt lat="44.40878" lon="4.20251">
        <ele>170</ele>
        <time>2020-03-12T11:53:52+01:00</time>
      </trkpt>
      <trkpt lat="44.40896" lon="4.20223">
        <ele>178</ele>
        <time>2020-03-12T11:53:57+01:00</time>
      </trkpt>
      <trkpt lat="44.40913" lon="4.20203">
        <ele>183</ele>
        <time>2020-03-12T11:54:02+01:00</time>
      </trkpt>
      <trkpt lat="44.40931" lon="4.20185">
        <ele>186</ele>
        <time>2020-03-12T11:54:07+01:00</time>
      </trkpt>
      <trkpt lat="44.40946" lon="4.20175">
        <ele>187</ele>
        <time>2020-03-12T11:54:12+01:00</time>
      </trkpt>
      <trkpt lat="44.40955" lon="4.20154">
        <ele>189</ele>
        <time>2020-03-12T11:54:17+01:00</time>
      </trkpt>
      <trkpt lat="44.40959" lon="4.2013">
        <ele>190</ele>
        <time>2020-03-12T11:54:22+01:00</time>
      </trkpt>
      <trkpt lat="44.40959" lon="4.20107">
        <ele>192</ele>
        <time>2020-03-12T11:54:27+01:00</time>
      </trkpt>
      <trkpt lat="44.40954" lon="4.20085">
        <ele>193</ele>
        <time>2020-03-12T11:54:32+01:00</time>
      </trkpt>
      <trkpt lat="44.40952" lon="4.20071">
        <ele>195</ele>
        <time>2020-03-12T11:54:37+01:00</time>
      </trkpt>
      <trkpt lat="44.40974" lon="4.20021">
        <ele>200</ele>
        <time>2020-03-12T11:54:42+01:00</time>
      </trkpt>
      <trkpt lat="44.40987" lon="4.19977">
        <ele>204</ele>
        <time>2020-03-12T11:54:47+01:00</time>
      </trkpt>
      <trkpt lat="44.40995" lon="4.1995">
        <ele>206</ele>
        <time>2020-03-12T11:54:52+01:00</time>
      </trkpt>
      <trkpt lat="44.41006" lon="4.19924">
        <ele>210</ele>
        <time>2020-03-12T11:54:57+01:00</time>
      </trkpt>
      <trkpt lat="44.41019" lon="4.19894">
        <ele>212</ele>
        <time>2020-03-12T11:55:02+01:00</time>
      </trkpt>
      <trkpt lat="44.41026" lon="4.19869">
        <ele>214</ele>
        <time>2020-03-12T11:55:07+01:00</time>
      </trkpt>
      <trkpt lat="44.41032" lon="4.19839">
        <ele>216</ele>
        <time>2020-03-12T11:55:12+01:00</time>
      </trkpt>
      <trkpt lat="44.41039" lon="4.19813">
        <ele>218</ele>
        <time>2020-03-12T11:55:17+01:00</time>
      </trkpt>
      <trkpt lat="44.41047" lon="4.19833">
        <ele>217</ele>
        <time>2020-03-12T11:55:22+01:00</time>
      </trkpt>
      <trkpt lat="44.4106" lon="4.19867">
        <ele>215</ele>
        <time>2020-03-12T11:55:27+01:00</time>
      </trkpt>
      <trkpt lat="44.4107" lon="4.19886">
        <ele>213</ele>
        <time>2020-03-12T11:55:32+01:00</time>
      </trkpt>
      <trkpt lat="44.41083" lon="4.19904">
        <ele>212</ele>
        <time>2020-03-12T11:55:37+01:00</time>
      </trkpt>
      <trkpt lat="44.41097" lon="4.1991">
        <ele>210</ele>
        <time>2020-03-12T11:55:42+01:00</time>
      </trkpt>
      <trkpt lat="44.41106" lon="4.19911">
        <ele>210</ele>
        <time>2020-03-12T11:55:47+01:00</time>
      </trkpt>
      <trkpt lat="44.4115" lon="4.19894">
        <ele>212</ele>
        <time>2020-03-12T11:55:52+01:00</time>
      </trkpt>
      <trkpt lat="44.41181" lon="4.19889">
        <ele>213</ele>
        <time>2020-03-12T11:55:57+01:00</time>
      </trkpt>
      <trkpt lat="44.41215" lon="4.19891">
        <ele>212</ele>
        <time>2020-03-12T11:56:02+01:00</time>
      </trkpt>
      <trkpt lat="44.41242" lon="4.1989">
        <ele>211</ele>
        <time>2020-03-12T11:56:07+01:00</time>
      </trkpt>
      <trkpt lat="44.41261" lon="4.199">
        <ele>209</ele>
        <time>2020-03-12T11:56:12+01:00</time>
      </trkpt>
      <trkpt lat="44.41277" lon="4.19914">
        <ele>207</ele>
        <time>2020-03-12T11:56:17+01:00</time>
      </trkpt>
      <trkpt lat="44.41287" lon="4.19914">
        <ele>206</ele>
        <time>2020-03-12T11:56:22+01:00</time>
      </trkpt>
      <trkpt lat="44.41306" lon="4.19898">
        <ele>208</ele>
        <time>2020-03-12T11:56:27+01:00</time>
      </trkpt>
      <trkpt lat="44.41325" lon="4.19867">
        <ele>209</ele>
        <time>2020-03-12T11:56:32+01:00</time>
      </trkpt>
      <trkpt lat="44.41335" lon="4.19857">
        <ele>209</ele>
        <time>2020-03-12T11:56:37+01:00</time>
      </trkpt>
      <trkpt lat="44.41353" lon="4.19854">
        <ele>209</ele>
        <time>2020-03-12T11:56:42+01:00</time>
      </trkpt>
      <trkpt lat="44.41376" lon="4.19857">
        <ele>209</ele>
        <time>2020-03-12T11:56:47+01:00</time>
      </trkpt>
      <trkpt lat="44.41404" lon="4.19864">
        <ele>208</ele>
        <time>2020-03-12T11:56:52+01:00</time>
      </trkpt>
      <trkpt lat="44.41426" lon="4.19869">
        <ele>208</ele>
        <time>2020-03-12T11:56:57+01:00</time>
      </trkpt>
      <trkpt lat="44.41461" lon="4.19883">
        <ele>210</ele>
        <time>2020-03-12T11:57:02+01:00</time>
      </trkpt>
      <trkpt lat="44.41484" lon="4.19891">
        <ele>212</ele>
        <time>2020-03-12T11:57:07+01:00</time>
      </trkpt>
      <trkpt lat="44.41505" lon="4.19896">
        <ele>213</ele>
        <time>2020-03-12T11:57:12+01:00</time>
      </trkpt>
      <trkpt lat="44.41552" lon="4.19894">
        <ele>215</ele>
        <time>2020-03-12T11:57:17+01:00</time>
      </trkpt>
      <trkpt lat="44.41585" lon="4.19895">
        <ele>216</ele>
        <time>2020-03-12T11:57:22+01:00</time>
      </trkpt>
      <trkpt lat="44.41623" lon="4.199">
        <ele>217</ele>
        <time>2020-03-12T11:57:27+01:00</time>
      </trkpt>
      <trkpt lat="44.41654" lon="4.19903">
        <ele>218</ele>
        <time>2020-03-12T11:57:32+01:00</time>
      </trkpt>
      <trkpt lat="44.41673" lon="4.19903">
        <ele>219</ele>
        <time>2020-03-12T11:57:37+01:00</time>
      </trkpt>
      <trkpt lat="44.417" lon="4.199">
        <ele>220</ele>
        <time>2020-03-12T11:57:42+01:00</time>
      </trkpt>
      <trkpt lat="44.41721" lon="4.19899">
        <ele>220</ele>
        <time>2020-03-12T11:57:47+01:00</time>
      </trkpt>
      <trkpt lat="44.41736" lon="4.199">
        <ele>220</ele>
        <time>2020-03-12T11:57:52+01:00</time>
      </trkpt>
      <trkpt lat="44.4176" lon="4.19892">
        <ele>221</ele>
        <time>2020-03-12T11:57:57+01:00</time>
      </trkpt>
      <trkpt lat="44.41782" lon="4.19889">
        <ele>223</ele>
        <time>2020-03-12T11:58:02+01:00</time>
      </trkpt>
      <trkpt lat="44.41799" lon="4.19889">
        <ele>224</ele>
        <time>2020-03-12T11:58:07+01:00</time>
      </trkpt>
      <trkpt lat="44.41824" lon="4.19893">
        <ele>225</ele>
        <time>2020-03-12T11:58:12+01:00</time>
      </trkpt>
      <trkpt lat="44.4184" lon="4.19904">
        <ele>225</ele>
        <time>2020-03-12T11:58:17+01:00</time>
      </trkpt>
      <trkpt lat="44.41854" lon="4.19899">
        <ele>226</ele>
        <time>2020-03-12T11:58:22+01:00</time>
      </trkpt>
      <trkpt lat="44.41869" lon="4.19896">
        <ele>226</ele>
        <time>2020-03-12T11:58:27+01:00</time>
      </trkpt>
      <trkpt lat="44.41916" lon="4.19901">
        <ele>226</ele>
        <time>2020-03-12T11:58:32+01:00</time>
      </trkpt>
      <trkpt lat="44.41951" lon="4.19904">
        <ele>226</ele>
        <time>2020-03-12T11:58:37+01:00</time>
      </trkpt>
      <trkpt lat="44.41989" lon="4.19903">
        <ele>226</ele>
        <time>2020-03-12T11:58:42+01:00</time>
      </trkpt>
      <trkpt lat="44.42015" lon="4.19904">
        <ele>227</ele>
        <time>2020-03-12T11:58:47+01:00</time>
      </trkpt>
      <trkpt lat="44.4203" lon="4.1991">
        <ele>228</ele>
        <time>2020-03-12T11:58:52+01:00</time>
      </trkpt>
      <trkpt lat="44.42054" lon="4.19924">
        <ele>228</ele>
        <time>2020-03-12T11:58:57+01:00</time>
      </trkpt>
      <trkpt lat="44.4207" lon="4.19939">
        <ele>229</ele>
        <time>2020-03-12T11:59:02+01:00</time>
      </trkpt>
      <trkpt lat="44.42083" lon="4.19944">
        <ele>229</ele>
        <time>2020-03-12T11:59:07+01:00</time>
      </trkpt>
      <trkpt lat="44.4211" lon="4.19956">
        <ele>230</ele>
        <time>2020-03-12T11:59:12+01:00</time>
      </trkpt>
      <trkpt lat="44.42136" lon="4.19958">
        <ele>231</ele>
        <time>2020-03-12T11:59:17+01:00</time>
      </trkpt>
      <trkpt lat="44.42172" lon="4.19962">
        <ele>232</ele>
        <time>2020-03-12T11:59:22+01:00</time>
      </trkpt>
      <trkpt lat="44.42201" lon="4.19968">
        <ele>232</ele>
        <time>2020-03-12T11:59:27+01:00</time>
      </trkpt>
      <trkpt lat="44.42227" lon="4.1998">
        <ele>231</ele>
        <time>2020-03-12T11:59:32+01:00</time>
      </trkpt>
      <trkpt lat="44.42257" lon="4.19998">
        <ele>230</ele>
        <time>2020-03-12T11:59:37+01:00</time>
      </trkpt>
      <trkpt lat="44.42286" lon="4.20011">
        <ele>231</ele>
        <time>2020-03-12T11:59:42+01:00</time>
      </trkpt>
      <trkpt lat="44.42339" lon="4.20027">
        <ele>232</ele>
        <time>2020-03-12T11:59:47+01:00</time>
      </trkpt>
      <trkpt lat="44.42365" lon="4.20031">
        <ele>233</ele>
        <time>2020-03-12T11:59:52+01:00</time>
      </trkpt>
      <trkpt lat="44.42389" lon="4.20038">
        <ele>234</ele>
        <time>2020-03-12T11:59:57+01:00</time>
      </trkpt>
      <trkpt lat="44.42404" lon="4.20039">
        <ele>235</ele>
        <time>2020-03-12T12:00:02+01:00</time>
      </trkpt>
      <trkpt lat="44.42436" lon="4.20029">
        <ele>237</ele>
        <time>2020-03-12T12:00:07+01:00</time>
      </trkpt>
      <trkpt lat="44.42451" lon="4.20023">
        <ele>237</ele>
        <time>2020-03-12T12:00:12+01:00</time>
      </trkpt>
      <trkpt lat="44.42475" lon="4.20025">
        <ele>237</ele>
        <time>2020-03-12T12:00:17+01:00</time>
      </trkpt>
      <trkpt lat="44.42487" lon="4.20029">
        <ele>237</ele>
        <time>2020-03-12T12:00:22+01:00</time>
      </trkpt>
      <trkpt lat="44.42514" lon="4.20021">
        <ele>238</ele>
        <time>2020-03-12T12:00:27+01:00</time>
      </trkpt>
      <trkpt lat="44.42565" lon="4.20001">
        <ele>240</ele>
        <time>2020-03-12T12:00:32+01:00</time>
      </trkpt>
      <trkpt lat="44.42584" lon="4.19987">
        <ele>240</ele>
        <time>2020-03-12T12:00:37+01:00</time>
      </trkpt>
      <trkpt lat="44.42602" lon="4.19982">
        <ele>239</ele>
        <time>2020-03-12T12:00:42+01:00</time>
      </trkpt>
      <trkpt lat="44.42621" lon="4.19974">
        <ele>239</ele>
        <time>2020-03-12T12:00:47+01:00</time>
      </trkpt>
      <trkpt lat="44.42653" lon="4.19955">
        <ele>239</ele>
        <time>2020-03-12T12:00:52+01:00</time>
      </trkpt>
      <trkpt lat="44.42676" lon="4.19941">
        <ele>239</ele>
        <time>2020-03-12T12:00:57+01:00</time>
      </trkpt>
      <trkpt lat="44.42689" lon="4.19935">
        <ele>239</ele>
        <time>2020-03-12T12:01:02+01:00</time>
      </trkpt>
      <trkpt lat="44.42705" lon="4.19938">
        <ele>238</ele>
        <time>2020-03-12T12:01:07+01:00</time>
      </trkpt>
      <trkpt lat="44.42726" lon="4.1995">
        <ele>235</ele>
        <time>2020-03-12T12:01:12+01:00</time>
      </trkpt>
      <trkpt lat="44.42743" lon="4.19954">
        <ele>234</ele>
        <time>2020-03-12T12:01:17+01:00</time>
      </trkpt>
      <trkpt lat="44.42764" lon="4.19947">
        <ele>234</ele>
        <time>2020-03-12T12:01:22+01:00</time>
      </trkpt>
      <trkpt lat="44.42782" lon="4.19938">
        <ele>234</ele>
        <time>2020-03-12T12:01:27+01:00</time>
      </trkpt>
      <trkpt lat="44.42801" lon="4.1994">
        <ele>233</ele>
        <time>2020-03-12T12:01:32+01:00</time>
      </trkpt>
      <trkpt lat="44.42815" lon="4.19944">
        <ele>232</ele>
        <time>2020-03-12T12:01:37+01:00</time>
      </trkpt>
      <trkpt lat="44.42843" lon="4.19945">
        <ele>231</ele>
        <time>2020-03-12T12:01:42+01:00</time>
      </trkpt>
      <trkpt lat="44.42864" lon="4.19944">
        <ele>230</ele>
        <time>2020-03-12T12:01:47+01:00</time>
      </trkpt>
      <trkpt lat="44.42898" lon="4.19932">
        <ele>228</ele>
        <time>2020-03-12T12:01:52+01:00</time>
      </trkpt>
      <trkpt lat="44.42913" lon="4.19927">
        <ele>227</ele>
        <time>2020-03-12T12:01:57+01:00</time>
      </trkpt>
      <trkpt lat="44.42906" lon="4.19954">
        <ele>227</ele>
        <time>2020-03-12T12:02:02+01:00</time>
      </trkpt>
      <trkpt lat="44.42857" lon="4.20021">
        <ele>225</ele>
        <time>2020-03-12T12:02:07+01:00</time>
      </trkpt>
      <trkpt lat="44.42851" lon="4.20039">
        <ele>224</ele>
        <time>2020-03-12T12:02:12+01:00</time>
      </trkpt>
      <trkpt lat="44.42831" lon="4.20088">
        <ele>223</ele>
        <time>2020-03-12T12:02:17+01:00</time>
      </trkpt>
      <trkpt lat="44.42826" lon="4.20104">
        <ele>224</ele>
        <time>2020-03-12T12:02:22+01:00</time>
      </trkpt>
      <trkpt lat="44.42797" lon="4.20151">
        <ele>227</ele>
        <time>2020-03-12T12:02:27+01:00</time>
      </trkpt>
      <trkpt lat="44.42771" lon="4.20205">
        <ele>229</ele>
        <time>2020-03-12T12:02:32+01:00</time>
      </trkpt>
      <trkpt lat="44.42734" lon="4.20277">
        <ele>228</ele>
        <time>2020-03-12T12:02:37+01:00</time>
      </trkpt>
      <trkpt lat="44.42714" lon="4.20309">
        <ele>227</ele>
        <time>2020-03-12T12:02:42+01:00</time>
      </trkpt>
      <trkpt lat="44.42706" lon="4.20315">
        <ele>227</ele>
        <time>2020-03-12T12:02:47+01:00</time>
      </trkpt>
      <trkpt lat="44.42696" lon="4.20315">
        <ele>227</ele>
        <time>2020-03-12T12:02:52+01:00</time>
      </trkpt>
      <trkpt lat="44.4269" lon="4.2032">
        <ele>226</ele>
        <time>2020-03-12T12:02:57+01:00</time>
      </trkpt>
      <trkpt lat="44.42661" lon="4.20374">
        <ele>226</ele>
        <time>2020-03-12T12:03:02+01:00</time>
      </trkpt>
      <trkpt lat="44.42637" lon="4.2042">
        <ele>225</ele>
        <time>2020-03-12T12:03:07+01:00</time>
      </trkpt>
      <trkpt lat="44.42619" lon="4.20455">
        <ele>226</ele>
        <time>2020-03-12T12:03:12+01:00</time>
      </trkpt>
      <trkpt lat="44.42609" lon="4.20472">
        <ele>227</ele>
        <time>2020-03-12T12:03:17+01:00</time>
      </trkpt>
      <trkpt lat="44.42575" lon="4.20501">
        <ele>228</ele>
        <time>2020-03-12T12:03:22+01:00</time>
      </trkpt>
      <trkpt lat="44.42569" lon="4.20516">
        <ele>228</ele>
        <time>2020-03-12T12:03:27+01:00</time>
      </trkpt>
      <trkpt lat="44.42552" lon="4.20571">
        <ele>229</ele>
        <time>2020-03-12T12:03:32+01:00</time>
      </trkpt>
      <trkpt lat="44.42542" lon="4.20602">
        <ele>230</ele>
        <time>2020-03-12T12:03:37+01:00</time>
      </trkpt>
      <trkpt lat="44.42536" lon="4.20618">
        <ele>230</ele>
        <time>2020-03-12T12:03:42+01:00</time>
      </trkpt>
      <trkpt lat="44.42515" lon="4.20642">
        <ele>230</ele>
        <time>2020-03-12T12:03:47+01:00</time>
      </trkpt>
      <trkpt lat="44.42504" lon="4.20669">
        <ele>230</ele>
        <time>2020-03-12T12:03:52+01:00</time>
      </trkpt>
      <trkpt lat="44.42497" lon="4.2069">
        <ele>229</ele>
        <time>2020-03-12T12:03:57+01:00</time>
      </trkpt>
      <trkpt lat="44.4248" lon="4.20721">
        <ele>229</ele>
        <time>2020-03-12T12:04:02+01:00</time>
      </trkpt>
      <trkpt lat="44.4247" lon="4.20762">
        <ele>228</ele>
        <time>2020-03-12T12:04:07+01:00</time>
      </trkpt>
      <trkpt lat="44.42467" lon="4.20798">
        <ele>226</ele>
        <time>2020-03-12T12:04:12+01:00</time>
      </trkpt>
      <trkpt lat="44.42465" lon="4.2082">
        <ele>225</ele>
        <time>2020-03-12T12:04:17+01:00</time>
      </trkpt>
      <trkpt lat="44.42468" lon="4.20864">
        <ele>223</ele>
        <time>2020-03-12T12:04:22+01:00</time>
      </trkpt>
      <trkpt lat="44.4248" lon="4.20902">
        <ele>221</ele>
        <time>2020-03-12T12:04:27+01:00</time>
      </trkpt>
      <trkpt lat="44.42489" lon="4.20938">
        <ele>220</ele>
        <time>2020-03-12T12:04:32+01:00</time>
      </trkpt>
      <trkpt lat="44.42489" lon="4.20976">
        <ele>220</ele>
        <time>2020-03-12T12:04:37+01:00</time>
      </trkpt>
      <trkpt lat="44.42495" lon="4.21001">
        <ele>220</ele>
        <time>2020-03-12T12:04:42+01:00</time>
      </trkpt>
      <trkpt lat="44.4249" lon="4.21026">
        <ele>220</ele>
        <time>2020-03-12T12:04:47+01:00</time>
      </trkpt>
      <trkpt lat="44.4248" lon="4.21063">
        <ele>219</ele>
        <time>2020-03-12T12:04:52+01:00</time>
      </trkpt>
      <trkpt lat="44.42464" lon="4.21102">
        <ele>219</ele>
        <time>2020-03-12T12:04:57+01:00</time>
      </trkpt>
      <trkpt lat="44.42454" lon="4.21145">
        <ele>218</ele>
        <time>2020-03-12T12:05:02+01:00</time>
      </trkpt>
      <trkpt lat="44.42441" lon="4.21187">
        <ele>218</ele>
        <time>2020-03-12T12:05:07+01:00</time>
      </trkpt>
      <trkpt lat="44.42425" lon="4.21236">
        <ele>218</ele>
        <time>2020-03-12T12:05:12+01:00</time>
      </trkpt>
      <trkpt lat="44.42418" lon="4.21268">
        <ele>217</ele>
        <time>2020-03-12T12:05:17+01:00</time>
      </trkpt>
      <trkpt lat="44.42454" lon="4.21273">
        <ele>220</ele>
        <time>2020-03-12T12:05:22+01:00</time>
      </trkpt>
      <trkpt lat="44.4252" lon="4.21283">
        <ele>227</ele>
        <time>2020-03-12T12:05:27+01:00</time>
      </trkpt>
      <trkpt lat="44.42567" lon="4.21288">
        <ele>232</ele>
        <time>2020-03-12T12:05:32+01:00</time>
      </trkpt>
      <trkpt lat="44.42594" lon="4.21287">
        <ele>235</ele>
        <time>2020-03-12T12:05:37+01:00</time>
      </trkpt>
      <trkpt lat="44.42616" lon="4.21281">
        <ele>237</ele>
        <time>2020-03-12T12:05:42+01:00</time>
      </trkpt>
      <trkpt lat="44.42626" lon="4.21277">
        <ele>238</ele>
        <time>2020-03-12T12:05:47+01:00</time>
      </trkpt>
      <trkpt lat="44.42634" lon="4.21261">
        <ele>238</ele>
        <time>2020-03-12T12:05:52+01:00</time>
      </trkpt>
      <trkpt lat="44.42647" lon="4.21253">
        <ele>239</ele>
        <time>2020-03-12T12:05:57+01:00</time>
      </trkpt>
      <trkpt lat="44.42666" lon="4.21276">
        <ele>242</ele>
        <time>2020-03-12T12:06:02+01:00</time>
      </trkpt>
      <trkpt lat="44.4268" lon="4.21293">
        <ele>243</ele>
        <time>2020-03-12T12:06:07+01:00</time>
      </trkpt>
      <trkpt lat="44.42703" lon="4.21305">
        <ele>244</ele>
        <time>2020-03-12T12:06:12+01:00</time>
      </trkpt>
      <trkpt lat="44.42732" lon="4.21322">
        <ele>245</ele>
        <time>2020-03-12T12:06:17+01:00</time>
      </trkpt>
      <trkpt lat="44.42756" lon="4.21328">
        <ele>245</ele>
        <time>2020-03-12T12:06:22+01:00</time>
      </trkpt>
      <trkpt lat="44.42779" lon="4.21329">
        <ele>243</ele>
        <time>2020-03-12T12:06:27+01:00</time>
      </trkpt>
      <trkpt lat="44.42813" lon="4.21322">
        <ele>242</ele>
        <time>2020-03-12T12:06:32+01:00</time>
      </trkpt>
      <trkpt lat="44.4286" lon="4.21321">
        <ele>240</ele>
        <time>2020-03-12T12:06:37+01:00</time>
      </trkpt>
      <trkpt lat="44.4289" lon="4.21365">
        <ele>238</ele>
        <time>2020-03-12T12:06:42+01:00</time>
      </trkpt>
      <trkpt lat="44.4291" lon="4.21398">
        <ele>237</ele>
        <time>2020-03-12T12:06:47+01:00</time>
      </trkpt>
      <trkpt lat="44.42915" lon="4.21428">
        <ele>236</ele>
        <time>2020-03-12T12:06:52+01:00</time>
      </trkpt>
      <trkpt lat="44.42918" lon="4.21467">
        <ele>235</ele>
        <time>2020-03-12T12:06:57+01:00</time>
      </trkpt>
      <trkpt lat="44.4292" lon="4.21481">
        <ele>235</ele>
        <time>2020-03-12T12:07:02+01:00</time>
      </trkpt>
      <trkpt lat="44.42951" lon="4.21496">
        <ele>236</ele>
        <time>2020-03-12T12:07:07+01:00</time>
      </trkpt>
      <trkpt lat="44.42978" lon="4.21503">
        <ele>238</ele>
        <time>2020-03-12T12:07:12+01:00</time>
      </trkpt>
      <trkpt lat="44.43004" lon="4.2151">
        <ele>239</ele>
        <time>2020-03-12T12:07:17+01:00</time>
      </trkpt>
      <trkpt lat="44.43024" lon="4.21518">
        <ele>241</ele>
        <time>2020-03-12T12:07:22+01:00</time>
      </trkpt>
      <trkpt lat="44.43032" lon="4.21527">
        <ele>241</ele>
        <time>2020-03-12T12:07:27+01:00</time>
      </trkpt>
      <trkpt lat="44.43061" lon="4.21541">
        <ele>243</ele>
        <time>2020-03-12T12:07:32+01:00</time>
      </trkpt>
      <trkpt lat="44.43089" lon="4.2155">
        <ele>244</ele>
        <time>2020-03-12T12:07:37+01:00</time>
      </trkpt>
      <trkpt lat="44.43103" lon="4.2156">
        <ele>244</ele>
        <time>2020-03-12T12:07:42+01:00</time>
      </trkpt>
      <trkpt lat="44.43112" lon="4.21579">
        <ele>243</ele>
        <time>2020-03-12T12:07:47+01:00</time>
      </trkpt>
      <trkpt lat="44.4312" lon="4.21656">
        <ele>239</ele>
        <time>2020-03-12T12:07:52+01:00</time>
      </trkpt>
      <trkpt lat="44.43124" lon="4.21704">
        <ele>236</ele>
        <time>2020-03-12T12:07:57+01:00</time>
      </trkpt>
      <trkpt lat="44.43135" lon="4.21753">
        <ele>233</ele>
        <time>2020-03-12T12:08:02+01:00</time>
      </trkpt>
      <trkpt lat="44.43105" lon="4.21839">
        <ele>229</ele>
        <time>2020-03-12T12:08:07+01:00</time>
      </trkpt>
      <trkpt lat="44.43093" lon="4.21871">
        <ele>228</ele>
        <time>2020-03-12T12:08:12+01:00</time>
      </trkpt>
      <trkpt lat="44.43067" lon="4.21906">
        <ele>227</ele>
        <time>2020-03-12T12:08:17+01:00</time>
      </trkpt>
      <trkpt lat="44.43044" lon="4.21957">
        <ele>228</ele>
        <time>2020-03-12T12:08:22+01:00</time>
      </trkpt>
      <trkpt lat="44.43024" lon="4.2201">
        <ele>227</ele>
        <time>2020-03-12T12:08:27+01:00</time>
      </trkpt>
      <trkpt lat="44.43008" lon="4.2206">
        <ele>225</ele>
        <time>2020-03-12T12:08:32+01:00</time>
      </trkpt>
      <trkpt lat="44.43001" lon="4.22094">
        <ele>224</ele>
        <time>2020-03-12T12:08:37+01:00</time>
      </trkpt>
      <trkpt lat="44.42993" lon="4.22145">
        <ele>223</ele>
        <time>2020-03-12T12:08:42+01:00</time>
      </trkpt>
      <trkpt lat="44.4299" lon="4.22152">
        <ele>223</ele>
        <time>2020-03-12T12:08:47+01:00</time>
      </trkpt>
      <trkpt lat="44.42966" lon="4.22167">
        <ele>222</ele>
        <time>2020-03-12T12:08:52+01:00</time>
      </trkpt>
      <trkpt lat="44.42956" lon="4.22177">
        <ele>221</ele>
        <time>2020-03-12T12:08:57+01:00</time>
      </trkpt>
      <trkpt lat="44.42929" lon="4.22304">
        <ele>221</ele>
        <time>2020-03-12T12:09:02+01:00</time>
      </trkpt>
      <trkpt lat="44.42759" lon="4.22309">
        <ele>214</ele>
        <time>2020-03-12T12:09:07+01:00</time>
      </trkpt>
      <trkpt lat="44.42747" lon="4.22306">
        <ele>214</ele>
        <time>2020-03-12T12:09:12+01:00</time>
      </trkpt>
      <trkpt lat="44.42766" lon="4.22234">
        <ele>217</ele>
        <time>2020-03-12T12:09:17+01:00</time>
      </trkpt>
      <trkpt lat="44.42746" lon="4.22237">
        <ele>216</ele>
        <time>2020-03-12T12:09:22+01:00</time>
      </trkpt>
      <trkpt lat="44.4272" lon="4.2225">
        <ele>214</ele>
        <time>2020-03-12T12:09:27+01:00</time>
      </trkpt>
      <trkpt lat="44.42701" lon="4.22266">
        <ele>214</ele>
        <time>2020-03-12T12:09:32+01:00</time>
      </trkpt>
      <trkpt lat="44.4268" lon="4.22279">
        <ele>213</ele>
        <time>2020-03-12T12:09:37+01:00</time>
      </trkpt>
      <trkpt lat="44.42644" lon="4.22289">
        <ele>212</ele>
        <time>2020-03-12T12:09:42+01:00</time>
      </trkpt>
      <trkpt lat="44.42619" lon="4.22294">
        <ele>211</ele>
        <time>2020-03-12T12:09:47+01:00</time>
      </trkpt>
      <trkpt lat="44.42598" lon="4.22297">
        <ele>210</ele>
        <time>2020-03-12T12:09:52+01:00</time>
      </trkpt>
      <trkpt lat="44.42587" lon="4.22306">
        <ele>209</ele>
        <time>2020-03-12T12:09:57+01:00</time>
      </trkpt>
      <trkpt lat="44.42551" lon="4.2234">
        <ele>209</ele>
        <time>2020-03-12T12:10:02+01:00</time>
      </trkpt>
      <trkpt lat="44.42526" lon="4.22365">
        <ele>208</ele>
        <time>2020-03-12T12:10:07+01:00</time>
      </trkpt>
      <trkpt lat="44.42507" lon="4.22381">
        <ele>208</ele>
        <time>2020-03-12T12:10:12+01:00</time>
      </trkpt>
      <trkpt lat="44.42497" lon="4.22398">
        <ele>207</ele>
        <time>2020-03-12T12:10:17+01:00</time>
      </trkpt>
      <trkpt lat="44.42494" lon="4.22412">
        <ele>207</ele>
        <time>2020-03-12T12:10:22+01:00</time>
      </trkpt>
      <trkpt lat="44.42493" lon="4.22444">
        <ele>207</ele>
        <time>2020-03-12T12:10:27+01:00</time>
      </trkpt>
      <trkpt lat="44.42472" lon="4.22488">
        <ele>207</ele>
        <time>2020-03-12T12:10:32+01:00</time>
      </trkpt>
      <trkpt lat="44.4246" lon="4.22511">
        <ele>207</ele>
        <time>2020-03-12T12:10:37+01:00</time>
      </trkpt>
      <trkpt lat="44.42438" lon="4.22536">
        <ele>208</ele>
        <time>2020-03-12T12:10:42+01:00</time>
      </trkpt>
      <trkpt lat="44.42415" lon="4.22543">
        <ele>209</ele>
        <time>2020-03-12T12:10:47+01:00</time>
      </trkpt>
      <trkpt lat="44.42401" lon="4.22564">
        <ele>209</ele>
        <time>2020-03-12T12:10:52+01:00</time>
      </trkpt>
      <trkpt lat="44.42382" lon="4.22603">
        <ele>209</ele>
        <time>2020-03-12T12:10:57+01:00</time>
      </trkpt>
      <trkpt lat="44.42378" lon="4.22616">
        <ele>209</ele>
        <time>2020-03-12T12:11:02+01:00</time>
      </trkpt>
      <trkpt lat="44.42375" lon="4.22639">
        <ele>208</ele>
        <time>2020-03-12T12:11:07+01:00</time>
      </trkpt>
      <trkpt lat="44.42376" lon="4.22652">
        <ele>208</ele>
        <time>2020-03-12T12:11:12+01:00</time>
      </trkpt>
      <trkpt lat="44.42364" lon="4.22689">
        <ele>207</ele>
        <time>2020-03-12T12:11:17+01:00</time>
      </trkpt>
      <trkpt lat="44.42361" lon="4.22705">
        <ele>207</ele>
        <time>2020-03-12T12:11:22+01:00</time>
      </trkpt>
      <trkpt lat="44.42361" lon="4.22807">
        <ele>205</ele>
        <time>2020-03-12T12:11:27+01:00</time>
      </trkpt>
      <trkpt lat="44.42348" lon="4.22865">
        <ele>204</ele>
        <time>2020-03-12T12:11:32+01:00</time>
      </trkpt>
      <trkpt lat="44.4235" lon="4.2288">
        <ele>203</ele>
        <time>2020-03-12T12:11:37+01:00</time>
      </trkpt>
      <trkpt lat="44.42368" lon="4.22941">
        <ele>203</ele>
        <time>2020-03-12T12:11:42+01:00</time>
      </trkpt>
      <trkpt lat="44.42386" lon="4.22977">
        <ele>203</ele>
        <time>2020-03-12T12:11:47+01:00</time>
      </trkpt>
      <trkpt lat="44.42306" lon="4.23028">
        <ele>203</ele>
        <time>2020-03-12T12:11:52+01:00</time>
      </trkpt>
      <trkpt lat="44.4227" lon="4.23045">
        <ele>204</ele>
        <time>2020-03-12T12:11:57+01:00</time>
      </trkpt>
      <trkpt lat="44.42265" lon="4.23061">
        <ele>205</ele>
        <time>2020-03-12T12:12:02+01:00</time>
      </trkpt>
      <trkpt lat="44.42231" lon="4.23081">
        <ele>204</ele>
        <time>2020-03-12T12:12:07+01:00</time>
      </trkpt>
      <trkpt lat="44.42206" lon="4.23093">
        <ele>204</ele>
        <time>2020-03-12T12:12:12+01:00</time>
      </trkpt>
      <trkpt lat="44.42152" lon="4.23116">
        <ele>203</ele>
        <time>2020-03-12T12:12:17+01:00</time>
      </trkpt>
      <trkpt lat="44.42129" lon="4.23123">
        <ele>203</ele>
        <time>2020-03-12T12:12:22+01:00</time>
      </trkpt>
      <trkpt lat="44.42097" lon="4.2314">
        <ele>203</ele>
        <time>2020-03-12T12:12:27+01:00</time>
      </trkpt>
      <trkpt lat="44.42084" lon="4.23148">
        <ele>203</ele>
        <time>2020-03-12T12:12:32+01:00</time>
      </trkpt>
      <trkpt lat="44.42064" lon="4.23165">
        <ele>202</ele>
        <time>2020-03-12T12:12:37+01:00</time>
      </trkpt>
      <trkpt lat="44.42051" lon="4.23179">
        <ele>201</ele>
        <time>2020-03-12T12:12:42+01:00</time>
      </trkpt>
      <trkpt lat="44.42045" lon="4.23203">
        <ele>200</ele>
        <time>2020-03-12T12:12:47+01:00</time>
      </trkpt>
      <trkpt lat="44.42048" lon="4.23227">
        <ele>201</ele>
        <time>2020-03-12T12:12:52+01:00</time>
      </trkpt>
      <trkpt lat="44.4205" lon="4.2325">
        <ele>202</ele>
        <time>2020-03-12T12:12:57+01:00</time>
      </trkpt>
      <trkpt lat="44.4205" lon="4.23271">
        <ele>201</ele>
        <time>2020-03-12T12:13:02+01:00</time>
      </trkpt>
      <trkpt lat="44.42043" lon="4.233">
        <ele>199</ele>
        <time>2020-03-12T12:13:07+01:00</time>
      </trkpt>
      <trkpt lat="44.42042" lon="4.23326">
        <ele>199</ele>
        <time>2020-03-12T12:13:12+01:00</time>
      </trkpt>
      <trkpt lat="44.42045" lon="4.2334">
        <ele>199</ele>
        <time>2020-03-12T12:13:17+01:00</time>
      </trkpt>
      <trkpt lat="44.42054" lon="4.23366">
        <ele>199</ele>
        <time>2020-03-12T12:13:22+01:00</time>
      </trkpt>
      <trkpt lat="44.42055" lon="4.23379">
        <ele>199</ele>
        <time>2020-03-12T12:13:27+01:00</time>
      </trkpt>
      <trkpt lat="44.4205" lon="4.2344">
        <ele>196</ele>
        <time>2020-03-12T12:13:32+01:00</time>
      </trkpt>
      <trkpt lat="44.42049" lon="4.23482">
        <ele>195</ele>
        <time>2020-03-12T12:13:37+01:00</time>
      </trkpt>
      <trkpt lat="44.42045" lon="4.23528">
        <ele>193</ele>
        <time>2020-03-12T12:13:42+01:00</time>
      </trkpt>
      <trkpt lat="44.42048" lon="4.23543">
        <ele>192</ele>
        <time>2020-03-12T12:13:47+01:00</time>
      </trkpt>
      <trkpt lat="44.42069" lon="4.23572">
        <ele>191</ele>
        <time>2020-03-12T12:13:52+01:00</time>
      </trkpt>
      <trkpt lat="44.42074" lon="4.23605">
        <ele>189</ele>
        <time>2020-03-12T12:13:57+01:00</time>
      </trkpt>
      <trkpt lat="44.42077" lon="4.23629">
        <ele>187</ele>
        <time>2020-03-12T12:14:02+01:00</time>
      </trkpt>
      <trkpt lat="44.42076" lon="4.23667">
        <ele>184</ele>
        <time>2020-03-12T12:14:07+01:00</time>
      </trkpt>
      <trkpt lat="44.42079" lon="4.23693">
        <ele>182</ele>
        <time>2020-03-12T12:14:12+01:00</time>
      </trkpt>
      <trkpt lat="44.42086" lon="4.23725">
        <ele>181</ele>
        <time>2020-03-12T12:14:17+01:00</time>
      </trkpt>
      <trkpt lat="44.42093" lon="4.23741">
        <ele>182</ele>
        <time>2020-03-12T12:14:22+01:00</time>
      </trkpt>
      <trkpt lat="44.4208" lon="4.23787">
        <ele>181</ele>
        <time>2020-03-12T12:14:27+01:00</time>
      </trkpt>
      <trkpt lat="44.42067" lon="4.23814">
        <ele>180</ele>
        <time>2020-03-12T12:14:32+01:00</time>
      </trkpt>
      <trkpt lat="44.42064" lon="4.2383">
        <ele>180</ele>
        <time>2020-03-12T12:14:37+01:00</time>
      </trkpt>
      <trkpt lat="44.42066" lon="4.23895">
        <ele>179</ele>
        <time>2020-03-12T12:14:42+01:00</time>
      </trkpt>
      <trkpt lat="44.42064" lon="4.23986">
        <ele>176</ele>
        <time>2020-03-12T12:14:47+01:00</time>
      </trkpt>
      <trkpt lat="44.42065" lon="4.24025">
        <ele>174</ele>
        <time>2020-03-12T12:14:52+01:00</time>
      </trkpt>
      <trkpt lat="44.42033" lon="4.24032">
        <ele>172</ele>
        <time>2020-03-12T12:14:57+01:00</time>
      </trkpt>
      <trkpt lat="44.42002" lon="4.24054">
        <ele>168</ele>
        <time>2020-03-12T12:15:02+01:00</time>
      </trkpt>
      <trkpt lat="44.41956" lon="4.24095">
        <ele>161</ele>
        <time>2020-03-12T12:15:07+01:00</time>
      </trkpt>
      <trkpt lat="44.41926" lon="4.24125">
        <ele>156</ele>
        <time>2020-03-12T12:15:12+01:00</time>
      </trkpt>
      <trkpt lat="44.419" lon="4.24152">
        <ele>154</ele>
        <time>2020-03-12T12:15:17+01:00</time>
      </trkpt>
      <trkpt lat="44.41879" lon="4.24181">
        <ele>153</ele>
        <time>2020-03-12T12:15:22+01:00</time>
      </trkpt>
      <trkpt lat="44.41872" lon="4.24189">
        <ele>152</ele>
        <time>2020-03-12T12:15:27+01:00</time>
      </trkpt>
      <trkpt lat="44.41835" lon="4.24202">
        <ele>151</ele>
        <time>2020-03-12T12:15:32+01:00</time>
      </trkpt>
      <trkpt lat="44.41806" lon="4.24209">
        <ele>151</ele>
        <time>2020-03-12T12:15:37+01:00</time>
      </trkpt>
      <trkpt lat="44.41798" lon="4.24207">
        <ele>152</ele>
        <time>2020-03-12T12:15:42+01:00</time>
      </trkpt>
      <trkpt lat="44.41771" lon="4.24229">
        <ele>153</ele>
        <time>2020-03-12T12:15:47+01:00</time>
      </trkpt>
      <trkpt lat="44.41739" lon="4.24242">
        <ele>155</ele>
        <time>2020-03-12T12:15:52+01:00</time>
      </trkpt>
      <trkpt lat="44.41693" lon="4.2425">
        <ele>159</ele>
        <time>2020-03-12T12:15:57+01:00</time>
      </trkpt>
      <trkpt lat="44.41663" lon="4.24251">
        <ele>161</ele>
        <time>2020-03-12T12:16:02+01:00</time>
      </trkpt>
      <trkpt lat="44.4164" lon="4.24254">
        <ele>160</ele>
        <time>2020-03-12T12:16:07+01:00</time>
      </trkpt>
      <trkpt lat="44.41615" lon="4.24271">
        <ele>160</ele>
        <time>2020-03-12T12:16:12+01:00</time>
      </trkpt>
      <trkpt lat="44.41596" lon="4.24294">
        <ele>160</ele>
        <time>2020-03-12T12:16:17+01:00</time>
      </trkpt>
      <trkpt lat="44.41571" lon="4.24319">
        <ele>159</ele>
        <time>2020-03-12T12:16:22+01:00</time>
      </trkpt>
      <trkpt lat="44.41548" lon="4.24361">
        <ele>158</ele>
        <time>2020-03-12T12:16:27+01:00</time>
      </trkpt>
      <trkpt lat="44.41533" lon="4.24394">
        <ele>156</ele>
        <time>2020-03-12T12:16:32+01:00</time>
      </trkpt>
      <trkpt lat="44.415" lon="4.24435">
        <ele>154</ele>
        <time>2020-03-12T12:16:37+01:00</time>
      </trkpt>
      <trkpt lat="44.4146" lon="4.24484">
        <ele>152</ele>
        <time>2020-03-12T12:16:42+01:00</time>
      </trkpt>
      <trkpt lat="44.4142" lon="4.24529">
        <ele>150</ele>
        <time>2020-03-12T12:16:47+01:00</time>
      </trkpt>
      <trkpt lat="44.41388" lon="4.24571">
        <ele>148</ele>
        <time>2020-03-12T12:16:52+01:00</time>
      </trkpt>
      <trkpt lat="44.41355" lon="4.24606">
        <ele>146</ele>
        <time>2020-03-12T12:16:57+01:00</time>
      </trkpt>
      <trkpt lat="44.41323" lon="4.24638">
        <ele>144</ele>
        <time>2020-03-12T12:17:02+01:00</time>
      </trkpt>
      <trkpt lat="44.41294" lon="4.24669">
        <ele>142</ele>
        <time>2020-03-12T12:17:07+01:00</time>
      </trkpt>
      <trkpt lat="44.41255" lon="4.24692">
        <ele>140</ele>
        <time>2020-03-12T12:17:12+01:00</time>
      </trkpt>
      <trkpt lat="44.41229" lon="4.24707">
        <ele>139</ele>
        <time>2020-03-12T12:17:17+01:00</time>
      </trkpt>
      <trkpt lat="44.41221" lon="4.24722">
        <ele>138</ele>
        <time>2020-03-12T12:17:22+01:00</time>
      </trkpt>
      <trkpt lat="44.41179" lon="4.24807">
        <ele>135</ele>
        <time>2020-03-12T12:17:27+01:00</time>
      </trkpt>
      <trkpt lat="44.4114" lon="4.24828">
        <ele>135</ele>
        <time>2020-03-12T12:17:32+01:00</time>
      </trkpt>
      <trkpt lat="44.41113" lon="4.24841">
        <ele>136</ele>
        <time>2020-03-12T12:17:37+01:00</time>
      </trkpt>
      <trkpt lat="44.4109" lon="4.24865">
        <ele>139</ele>
        <time>2020-03-12T12:17:42+01:00</time>
      </trkpt>
      <trkpt lat="44.41083" lon="4.24873">
        <ele>140</ele>
        <time>2020-03-12T12:17:47+01:00</time>
      </trkpt>
      <trkpt lat="44.41041" lon="4.24884">
        <ele>142</ele>
        <time>2020-03-12T12:17:52+01:00</time>
      </trkpt>
      <trkpt lat="44.40985" lon="4.24895">
        <ele>145</ele>
        <time>2020-03-12T12:17:57+01:00</time>
      </trkpt>
      <trkpt lat="44.40956" lon="4.249">
        <ele>146</ele>
        <time>2020-03-12T12:18:02+01:00</time>
      </trkpt>
      <trkpt lat="44.40929" lon="4.24902">
        <ele>146</ele>
        <time>2020-03-12T12:18:07+01:00</time>
      </trkpt>
      <trkpt lat="44.40901" lon="4.24927">
        <ele>147</ele>
        <time>2020-03-12T12:18:12+01:00</time>
      </trkpt>
      <trkpt lat="44.40874" lon="4.24962">
        <ele>146</ele>
        <time>2020-03-12T12:18:17+01:00</time>
      </trkpt>
      <trkpt lat="44.40837" lon="4.25011">
        <ele>143</ele>
        <time>2020-03-12T12:18:22+01:00</time>
      </trkpt>
      <trkpt lat="44.40818" lon="4.25027">
        <ele>142</ele>
        <time>2020-03-12T12:18:27+01:00</time>
      </trkpt>
      <trkpt lat="44.40788" lon="4.25051">
        <ele>141</ele>
        <time>2020-03-12T12:18:32+01:00</time>
      </trkpt>
      <trkpt lat="44.40774" lon="4.25065">
        <ele>140</ele>
        <time>2020-03-12T12:18:37+01:00</time>
      </trkpt>
      <trkpt lat="44.40775" lon="4.25075">
        <ele>140</ele>
        <time>2020-03-12T12:18:42+01:00</time>
      </trkpt>
      <trkpt lat="44.40732" lon="4.25141">
        <ele>139</ele>
        <time>2020-03-12T12:18:47+01:00</time>
      </trkpt>
      <trkpt lat="44.407" lon="4.25191">
        <ele>139</ele>
        <time>2020-03-12T12:18:52+01:00</time>
      </trkpt>
      <trkpt lat="44.40682" lon="4.25214">
        <ele>139</ele>
        <time>2020-03-12T12:18:57+01:00</time>
      </trkpt>
      <trkpt lat="44.40666" lon="4.25236">
        <ele>140</ele>
        <time>2020-03-12T12:19:02+01:00</time>
      </trkpt>
      <trkpt lat="44.40659" lon="4.25249">
        <ele>141</ele>
        <time>2020-03-12T12:19:07+01:00</time>
      </trkpt>
      <trkpt lat="44.40659" lon="4.25258">
        <ele>141</ele>
        <time>2020-03-12T12:19:12+01:00</time>
      </trkpt>
      <trkpt lat="44.40634" lon="4.25269">
        <ele>141</ele>
        <time>2020-03-12T12:19:17+01:00</time>
      </trkpt>
      <trkpt lat="44.40606" lon="4.25303">
        <ele>140</ele>
        <time>2020-03-12T12:19:22+01:00</time>
      </trkpt>
      <trkpt lat="44.40588" lon="4.25325">
        <ele>139</ele>
        <time>2020-03-12T12:19:27+01:00</time>
      </trkpt>
      <trkpt lat="44.4057" lon="4.25332">
        <ele>139</ele>
        <time>2020-03-12T12:19:32+01:00</time>
      </trkpt>
      <trkpt lat="44.4052" lon="4.25346">
        <ele>137</ele>
        <time>2020-03-12T12:19:37+01:00</time>
      </trkpt>
      <trkpt lat="44.40479" lon="4.25365">
        <ele>134</ele>
        <time>2020-03-12T12:19:42+01:00</time>
      </trkpt>
      <trkpt lat="44.40469" lon="4.25365">
        <ele>134</ele>
        <time>2020-03-12T12:19:47+01:00</time>
      </trkpt>
      <trkpt lat="44.40453" lon="4.25352">
        <ele>133</ele>
        <time>2020-03-12T12:19:52+01:00</time>
      </trkpt>
      <trkpt lat="44.40444" lon="4.25352">
        <ele>133</ele>
        <time>2020-03-12T12:19:57+01:00</time>
      </trkpt>
      <trkpt lat="44.40429" lon="4.25365">
        <ele>131</ele>
        <time>2020-03-12T12:20:02+01:00</time>
      </trkpt>
      <trkpt lat="44.40419" lon="4.25367">
        <ele>131</ele>
        <time>2020-03-12T12:20:07+01:00</time>
      </trkpt>
      <trkpt lat="44.40386" lon="4.25356">
        <ele>130</ele>
        <time>2020-03-12T12:20:12+01:00</time>
      </trkpt>
      <trkpt lat="44.40369" lon="4.25352">
        <ele>130</ele>
        <time>2020-03-12T12:20:17+01:00</time>
      </trkpt>
      <trkpt lat="44.40345" lon="4.25356">
        <ele>129</ele>
        <time>2020-03-12T12:20:22+01:00</time>
      </trkpt>
      <trkpt lat="44.40329" lon="4.25331">
        <ele>130</ele>
        <time>2020-03-12T12:20:27+01:00</time>
      </trkpt>
      <trkpt lat="44.40326" lon="4.25315">
        <ele>129</ele>
        <time>2020-03-12T12:20:32+01:00</time>
      </trkpt>
      <trkpt lat="44.40306" lon="4.25288">
        <ele>128</ele>
        <time>2020-03-12T12:20:37+01:00</time>
      </trkpt>
      <trkpt lat="44.40287" lon="4.25265">
        <ele>128</ele>
        <time>2020-03-12T12:20:42+01:00</time>
      </trkpt>
      <trkpt lat="44.40299" lon="4.25234">
        <ele>127</ele>
        <time>2020-03-12T12:20:47+01:00</time>
      </trkpt>
      <trkpt lat="44.40305" lon="4.25218">
        <ele>127</ele>
        <time>2020-03-12T12:20:52+01:00</time>
      </trkpt>
      <trkpt lat="44.40325" lon="4.25191">
        <ele>127</ele>
        <time>2020-03-12T12:20:57+01:00</time>
      </trkpt>
      <trkpt lat="44.40338" lon="4.25176">
        <ele>127</ele>
        <time>2020-03-12T12:21:02+01:00</time>
      </trkpt>
      <trkpt lat="44.40336" lon="4.25144">
        <ele>127</ele>
        <time>2020-03-12T12:21:07+01:00</time>
      </trkpt>
      <trkpt lat="44.4032" lon="4.25115">
        <ele>127</ele>
        <time>2020-03-12T12:21:12+01:00</time>
      </trkpt>
      <trkpt lat="44.40319" lon="4.25087">
        <ele>127</ele>
        <time>2020-03-12T12:21:17+01:00</time>
      </trkpt>
      <trkpt lat="44.4033" lon="4.25055">
        <ele>128</ele>
        <time>2020-03-12T12:21:22+01:00</time>
      </trkpt>
      <trkpt lat="44.40337" lon="4.25026">
        <ele>127</ele>
        <time>2020-03-12T12:21:27+01:00</time>
      </trkpt>
      <trkpt lat="44.40292" lon="4.24926">
        <ele>128</ele>
        <time>2020-03-12T12:21:32+01:00</time>
      </trkpt>
      <trkpt lat="44.40286" lon="4.24908">
        <ele>127</ele>
        <time>2020-03-12T12:21:37+01:00</time>
      </trkpt>
      <trkpt lat="44.40264" lon="4.24903">
        <ele>126</ele>
        <time>2020-03-12T12:21:42+01:00</time>
      </trkpt>
      <trkpt lat="44.4025" lon="4.24894">
        <ele>125</ele>
        <time>2020-03-12T12:21:47+01:00</time>
      </trkpt>
      <trkpt lat="44.4025" lon="4.24864">
        <ele>124</ele>
        <time>2020-03-12T12:21:52+01:00</time>
      </trkpt>
      <trkpt lat="44.40257" lon="4.24834">
        <ele>123</ele>
        <time>2020-03-12T12:21:57+01:00</time>
      </trkpt>
      <trkpt lat="44.40256" lon="4.24803">
        <ele>123</ele>
        <time>2020-03-12T12:22:02+01:00</time>
      </trkpt>
      <trkpt lat="44.40251" lon="4.24782">
        <ele>123</ele>
        <time>2020-03-12T12:22:07+01:00</time>
      </trkpt>
      <trkpt lat="44.40245" lon="4.24762">
        <ele>123</ele>
        <time>2020-03-12T12:22:12+01:00</time>
      </trkpt>
      <trkpt lat="44.40231" lon="4.24749">
        <ele>123</ele>
        <time>2020-03-12T12:22:17+01:00</time>
      </trkpt>
      <trkpt lat="44.40224" lon="4.24737">
        <ele>124</ele>
        <time>2020-03-12T12:22:22+01:00</time>
      </trkpt>
      <trkpt lat="44.40224" lon="4.24711">
        <ele>125</ele>
        <time>2020-03-12T12:22:27+01:00</time>
      </trkpt>
      <trkpt lat="44.4024" lon="4.2469">
        <ele>125</ele>
        <time>2020-03-12T12:22:32+01:00</time>
      </trkpt>
      <trkpt lat="44.40246" lon="4.24679">
        <ele>124</ele>
        <time>2020-03-12T12:22:37+01:00</time>
      </trkpt>
      <trkpt lat="44.40246" lon="4.24663">
        <ele>125</ele>
        <time>2020-03-12T12:22:42+01:00</time>
      </trkpt>
      <trkpt lat="44.40257" lon="4.24652">
        <ele>126</ele>
        <time>2020-03-12T12:22:47+01:00</time>
      </trkpt>
      <trkpt lat="44.4027" lon="4.24637">
        <ele>128</ele>
        <time>2020-03-12T12:22:52+01:00</time>
      </trkpt>
      <trkpt lat="44.40277" lon="4.24623">
        <ele>129</ele>
        <time>2020-03-12T12:22:57+01:00</time>
      </trkpt>
      <trkpt lat="44.40279" lon="4.246">
        <ele>130</ele>
        <time>2020-03-12T12:23:02+01:00</time>
      </trkpt>
      <trkpt lat="44.40278" lon="4.24577">
        <ele>130</ele>
        <time>2020-03-12T12:23:07+01:00</time>
      </trkpt>
      <trkpt lat="44.40269" lon="4.24557">
        <ele>129</ele>
        <time>2020-03-12T12:23:12+01:00</time>
      </trkpt>
      <trkpt lat="44.40269" lon="4.24542">
        <ele>128</ele>
        <time>2020-03-12T12:23:17+01:00</time>
      </trkpt>
      <trkpt lat="44.4027" lon="4.24517">
        <ele>128</ele>
        <time>2020-03-12T12:23:22+01:00</time>
      </trkpt>
      <trkpt lat="44.40281" lon="4.24494">
        <ele>127</ele>
        <time>2020-03-12T12:23:27+01:00</time>
      </trkpt>
      <trkpt lat="44.40289" lon="4.24478">
        <ele>127</ele>
        <time>2020-03-12T12:23:32+01:00</time>
      </trkpt>
      <trkpt lat="44.4029" lon="4.24467">
        <ele>126</ele>
        <time>2020-03-12T12:23:37+01:00</time>
      </trkpt>
      <trkpt lat="44.40276" lon="4.24448">
        <ele>126</ele>
        <time>2020-03-12T12:23:42+01:00</time>
      </trkpt>
      <trkpt lat="44.40267" lon="4.24439">
        <ele>125</ele>
        <time>2020-03-12T12:23:47+01:00</time>
      </trkpt>
      <trkpt lat="44.40267" lon="4.24432">
        <ele>125</ele>
        <time>2020-03-12T12:23:52+01:00</time>
      </trkpt>
      <trkpt lat="44.40246" lon="4.24398">
        <ele>126</ele>
        <time>2020-03-12T12:23:57+01:00</time>
      </trkpt>
      <trkpt lat="44.40226" lon="4.24375">
        <ele>128</ele>
        <time>2020-03-12T12:24:02+01:00</time>
      </trkpt>
      <trkpt lat="44.40217" lon="4.24368">
        <ele>129</ele>
        <time>2020-03-12T12:24:07+01:00</time>
      </trkpt>
      <trkpt lat="44.40199" lon="4.24369">
        <ele>130</ele>
        <time>2020-03-12T12:24:12+01:00</time>
      </trkpt>
      <trkpt lat="44.40185" lon="4.24367">
        <ele>131</ele>
        <time>2020-03-12T12:24:17+01:00</time>
      </trkpt>
      <trkpt lat="44.4017" lon="4.24358">
        <ele>131</ele>
        <time>2020-03-12T12:24:22+01:00</time>
      </trkpt>
      <trkpt lat="44.40162" lon="4.24352">
        <ele>131</ele>
        <time>2020-03-12T12:24:27+01:00</time>
      </trkpt>
      <trkpt lat="44.4015" lon="4.24351">
        <ele>132</ele>
        <time>2020-03-12T12:24:32+01:00</time>
      </trkpt>
      <trkpt lat="44.40141" lon="4.2435">
        <ele>133</ele>
        <time>2020-03-12T12:24:37+01:00</time>
      </trkpt>
      <trkpt lat="44.40128" lon="4.24337">
        <ele>133</ele>
        <time>2020-03-12T12:24:42+01:00</time>
      </trkpt>
      <trkpt lat="44.40111" lon="4.24329">
        <ele>135</ele>
        <time>2020-03-12T12:24:47+01:00</time>
      </trkpt>
      <trkpt lat="44.40089" lon="4.24315">
        <ele>137</ele>
        <time>2020-03-12T12:24:52+01:00</time>
      </trkpt>
      <trkpt lat="44.40069" lon="4.24304">
        <ele>138</ele>
        <time>2020-03-12T12:24:57+01:00</time>
      </trkpt>
      <trkpt lat="44.40046" lon="4.24287">
        <ele>138</ele>
        <time>2020-03-12T12:25:02+01:00</time>
      </trkpt>
      <trkpt lat="44.39987" lon="4.2427">
        <ele>138</ele>
        <time>2020-03-12T12:25:07+01:00</time>
      </trkpt>
      <trkpt lat="44.39898" lon="4.24233">
        <ele>135</ele>
        <time>2020-03-12T12:25:12+01:00</time>
      </trkpt>
      <trkpt lat="44.39846" lon="4.24209">
        <ele>132</ele>
        <time>2020-03-12T12:25:17+01:00</time>
      </trkpt>
      <trkpt lat="44.39815" lon="4.24191">
        <ele>129</ele>
        <time>2020-03-12T12:25:22+01:00</time>
      </trkpt>
      <trkpt lat="44.39778" lon="4.24176">
        <ele>127</ele>
        <time>2020-03-12T12:25:27+01:00</time>
      </trkpt>
      <trkpt lat="44.39749" lon="4.24151">
        <ele>126</ele>
        <time>2020-03-12T12:25:32+01:00</time>
      </trkpt>
      <trkpt lat="44.39716" lon="4.24114">
        <ele>125</ele>
        <time>2020-03-12T12:25:37+01:00</time>
      </trkpt>
      <trkpt lat="44.39667" lon="4.24069">
        <ele>121</ele>
        <time>2020-03-12T12:25:42+01:00</time>
      </trkpt>
      <trkpt lat="44.3965" lon="4.24061">
        <ele>120</ele>
        <time>2020-03-12T12:25:47+01:00</time>
      </trkpt>
      <trkpt lat="44.39632" lon="4.24076">
        <ele>119</ele>
        <time>2020-03-12T12:25:52+01:00</time>
      </trkpt>
      <trkpt lat="44.39621" lon="4.24087">
        <ele>118</ele>
        <time>2020-03-12T12:25:57+01:00</time>
      </trkpt>
      <trkpt lat="44.39598" lon="4.24071">
        <ele>116</ele>
        <time>2020-03-12T12:26:02+01:00</time>
      </trkpt>
      <trkpt lat="44.39587" lon="4.24065">
        <ele>115</ele>
        <time>2020-03-12T12:26:07+01:00</time>
      </trkpt>
      <trkpt lat="44.39564" lon="4.24059">
        <ele>115</ele>
        <time>2020-03-12T12:26:12+01:00</time>
      </trkpt>
      <trkpt lat="44.39522" lon="4.24056">
        <ele>115</ele>
        <time>2020-03-12T12:26:17+01:00</time>
      </trkpt>
      <trkpt lat="44.39542" lon="4.23989">
        <ele>115</ele>
        <time>2020-03-12T12:26:22+01:00</time>
      </trkpt>
      <trkpt lat="44.39562" lon="4.23934">
        <ele>118</ele>
        <time>2020-03-12T12:26:27+01:00</time>
      </trkpt>
      <trkpt lat="44.39571" lon="4.23902">
        <ele>119</ele>
        <time>2020-03-12T12:26:32+01:00</time>
      </trkpt>
      <trkpt lat="44.39571" lon="4.23874">
        <ele>119</ele>
        <time>2020-03-12T12:26:37+01:00</time>
      </trkpt>
      <trkpt lat="44.39575" lon="4.23828">
        <ele>119</ele>
        <time>2020-03-12T12:26:42+01:00</time>
      </trkpt>
      <trkpt lat="44.39577" lon="4.23798">
        <ele>119</ele>
        <time>2020-03-12T12:26:47+01:00</time>
      </trkpt>
      <trkpt lat="44.39575" lon="4.23766">
        <ele>120</ele>
        <time>2020-03-12T12:26:52+01:00</time>
      </trkpt>
      <trkpt lat="44.39572" lon="4.23721">
        <ele>121</ele>
        <time>2020-03-12T12:26:57+01:00</time>
      </trkpt>
      <trkpt lat="44.39565" lon="4.23686">
        <ele>123</ele>
        <time>2020-03-12T12:27:02+01:00</time>
      </trkpt>
      <trkpt lat="44.39561" lon="4.23658">
        <ele>124</ele>
        <time>2020-03-12T12:27:07+01:00</time>
      </trkpt>
      <trkpt lat="44.39558" lon="4.23629">
        <ele>125</ele>
        <time>2020-03-12T12:27:12+01:00</time>
      </trkpt>
      <trkpt lat="44.39552" lon="4.23605">
        <ele>125</ele>
        <time>2020-03-12T12:27:17+01:00</time>
      </trkpt>
      <trkpt lat="44.39548" lon="4.23569">
        <ele>125</ele>
        <time>2020-03-12T12:27:22+01:00</time>
      </trkpt>
      <trkpt lat="44.39544" lon="4.23535">
        <ele>126</ele>
        <time>2020-03-12T12:27:27+01:00</time>
      </trkpt>
      <trkpt lat="44.39539" lon="4.23506">
        <ele>127</ele>
        <time>2020-03-12T12:27:32+01:00</time>
      </trkpt>
      <trkpt lat="44.39535" lon="4.23484">
        <ele>127</ele>
        <time>2020-03-12T12:27:37+01:00</time>
      </trkpt>
      <trkpt lat="44.39533" lon="4.23455">
        <ele>127</ele>
        <time>2020-03-12T12:27:42+01:00</time>
      </trkpt>
      <trkpt lat="44.39532" lon="4.23423">
        <ele>127</ele>
        <time>2020-03-12T12:27:47+01:00</time>
      </trkpt>
      <trkpt lat="44.39528" lon="4.23403">
        <ele>127</ele>
        <time>2020-03-12T12:27:52+01:00</time>
      </trkpt>
      <trkpt lat="44.39525" lon="4.23384">
        <ele>128</ele>
        <time>2020-03-12T12:27:57+01:00</time>
      </trkpt>
      <trkpt lat="44.39519" lon="4.23362">
        <ele>128</ele>
        <time>2020-03-12T12:28:02+01:00</time>
      </trkpt>
      <trkpt lat="44.39513" lon="4.23338">
        <ele>129</ele>
        <time>2020-03-12T12:28:07+01:00</time>
      </trkpt>
      <trkpt lat="44.39509" lon="4.23313">
        <ele>129</ele>
        <time>2020-03-12T12:28:12+01:00</time>
      </trkpt>
      <trkpt lat="44.39508" lon="4.23291">
        <ele>130</ele>
        <time>2020-03-12T12:28:17+01:00</time>
      </trkpt>
      <trkpt lat="44.39506" lon="4.23271">
        <ele>130</ele>
        <time>2020-03-12T12:28:22+01:00</time>
      </trkpt>
      <trkpt lat="44.39501" lon="4.23262">
        <ele>130</ele>
        <time>2020-03-12T12:28:27+01:00</time>
      </trkpt>
      <trkpt lat="44.39491" lon="4.23255">
        <ele>129</ele>
        <time>2020-03-12T12:28:32+01:00</time>
      </trkpt>
      <trkpt lat="44.3948" lon="4.23247">
        <ele>129</ele>
        <time>2020-03-12T12:28:37+01:00</time>
      </trkpt>
      <trkpt lat="44.39467" lon="4.23223">
        <ele>128</ele>
        <time>2020-03-12T12:28:42+01:00</time>
      </trkpt>
      <trkpt lat="44.39489" lon="4.23205">
        <ele>130</ele>
        <time>2020-03-12T12:28:47+01:00</time>
      </trkpt>
      <trkpt lat="44.39527" lon="4.23174">
        <ele>133</ele>
        <time>2020-03-12T12:28:52+01:00</time>
      </trkpt>
      <trkpt lat="44.39573" lon="4.2314">
        <ele>136</ele>
        <time>2020-03-12T12:28:57+01:00</time>
      </trkpt>
      <trkpt lat="44.39595" lon="4.23134">
        <ele>137</ele>
        <time>2020-03-12T12:29:02+01:00</time>
      </trkpt>
      <trkpt lat="44.3964" lon="4.23139">
        <ele>140</ele>
        <time>2020-03-12T12:29:07+01:00</time>
      </trkpt>
      <trkpt lat="44.39683" lon="4.23142">
        <ele>142</ele>
        <time>2020-03-12T12:29:12+01:00</time>
      </trkpt>
      <trkpt lat="44.39686" lon="4.23107">
        <ele>143</ele>
        <time>2020-03-12T12:29:17+01:00</time>
      </trkpt>
      <trkpt lat="44.39687" lon="4.23094">
        <ele>143</ele>
        <time>2020-03-12T12:29:22+01:00</time>
      </trkpt>
      <trkpt lat="44.39681" lon="4.23079">
        <ele>143</ele>
        <time>2020-03-12T12:29:27+01:00</time>
      </trkpt>
      <trkpt lat="44.39685" lon="4.23045">
        <ele>143</ele>
        <time>2020-03-12T12:29:32+01:00</time>
      </trkpt>
      <trkpt lat="44.3969" lon="4.2301">
        <ele>144</ele>
        <time>2020-03-12T12:29:37+01:00</time>
      </trkpt>
      <trkpt lat="44.39701" lon="4.22987">
        <ele>144</ele>
        <time>2020-03-12T12:29:42+01:00</time>
      </trkpt>
      <trkpt lat="44.39736" lon="4.22975">
        <ele>145</ele>
        <time>2020-03-12T12:29:47+01:00</time>
      </trkpt>
      <trkpt lat="44.3976" lon="4.22954">
        <ele>145</ele>
        <time>2020-03-12T12:29:52+01:00</time>
      </trkpt>
      <trkpt lat="44.39785" lon="4.22918">
        <ele>147</ele>
        <time>2020-03-12T12:29:57+01:00</time>
      </trkpt>
      <trkpt lat="44.39795" lon="4.2291">
        <ele>148</ele>
        <time>2020-03-12T12:30:02+01:00</time>
      </trkpt>
      <trkpt lat="44.39813" lon="4.22909">
        <ele>149</ele>
        <time>2020-03-12T12:30:07+01:00</time>
      </trkpt>
      <trkpt lat="44.39833" lon="4.22909">
        <ele>150</ele>
        <time>2020-03-12T12:30:12+01:00</time>
      </trkpt>
      <trkpt lat="44.39833" lon="4.22892">
        <ele>151</ele>
        <time>2020-03-12T12:30:17+01:00</time>
        <extensions>
          <visugpx:TrkExtension xmlns:visugpx="https://www.visugpx.com/editgpx/">
            <visugpx:node>1</visugpx:node>
            </visugpx:TrkExtension>
        </extensions>
      </trkpt>
    </trkseg>
  </trk>
</gpx>